Time;durP1;ratioP1;P1;durP2;ratioP2;P2;SDS_P1;SDS_P2;PMS_P1;PMS_P2;Temp;Humidity;BMP_temperature;BMP_pressure;BME280_temperature;BME280_humidity;BME280_pressure;Samples;Min_cycle;Max_cycle;Signal;HPM_P1;HPM_P2
2021/05/29 00:00:20;;;;;;;21.33;7.65;;;;;;;19.17;100.00;100315.40;1645996;87;21152;-91
2021/05/29 00:02:46;;;;;;;29.90;9.35;;;;;;;19.23;100.00;100318.20;1649148;84;21035;-91
2021/05/29 00:05:12;;;;;;;39.13;10.53;;;;;;;19.17;100.00;100314.03;1672446;84;20991;-90
2021/05/29 00:07:38;;;;;;;43.25;10.55;;;;;;;18.98;100.00;100322.02;1643793;84;20940;-90
2021/05/29 00:10:05;;;;;;;23.98;8.15;;;;;;;18.94;100.00;100318.87;1672471;84;20935;-90
2021/05/29 00:12:31;;;;;;;25.75;8.25;;;;;;;19.02;100.00;100314.77;1672508;84;21661;-91
2021/05/29 00:14:57;;;;;;;23.80;8.58;;;;;;;19.10;100.00;100311.00;1672447;84;20895;-90
2021/05/29 00:17:23;;;;;;;21.37;7.58;;;;;;;19.10;100.00;100312.38;1672543;85;21121;-90
2021/05/29 00:19:49;;;;;;;18.90;6.45;;;;;;;19.10;100.00;100308.27;1672657;85;20907;-91
2021/05/29 00:22:15;;;;;;;16.48;5.47;;;;;;;19.08;100.00;100306.42;1672469;85;20930;-90
2021/05/29 00:24:41;;;;;;;13.22;5.58;;;;;;;18.95;100.00;100302.19;1672475;84;21747;-91
2021/05/29 00:27:07;;;;;;;21.12;6.40;;;;;;;19.04;100.00;100305.70;1672328;84;20899;-91
2021/05/29 00:29:33;;;;;;;18.65;5.95;;;;;;;19.09;100.00;100303.38;1672408;84;21091;-90
2021/05/29 00:31:58;;;;;;;16.30;5.45;;;;;;;19.11;100.00;100303.84;1672641;84;20895;-90
2021/05/29 00:34:24;;;;;;;13.58;5.20;;;;;;;19.19;100.00;100308.48;1672555;84;20871;-90
2021/05/29 00:36:50;;;;;;;23.35;5.85;;;;;;;19.16;100.00;100309.14;1672521;84;21578;-90
2021/05/29 00:39:16;;;;;;;13.53;5.70;;;;;;;19.12;100.00;100304.09;1672374;84;20915;-90
2021/05/29 00:41:42;;;;;;;15.18;5.60;;;;;;;19.12;100.00;100305.46;1672494;84;20986;-90
2021/05/29 00:44:08;;;;;;;14.45;4.75;;;;;;;19.10;100.00;100304.17;1672454;84;21018;-91
2021/05/29 00:46:34;;;;;;;15.98;5.25;;;;;;;19.01;100.00;100306.92;1672592;85;20986;-92
2021/05/29 00:49:00;;;;;;;13.95;4.97;;;;;;;18.77;100.00;100304.13;1672539;84;20984;-92
2021/05/29 00:51:26;;;;;;;10.60;4.30;;;;;;;18.57;100.00;100302.02;1672501;84;20923;-91
2021/05/29 00:53:54;;;;;;;14.23;4.58;;;;;;;18.56;100.00;100289.47;1672529;84;21149;-91
2021/05/29 00:56:19;;;;;;;12.60;4.10;;;;;;;18.54;100.00;100292.53;1672383;84;21134;-90
2021/05/29 00:58:45;;;;;;;13.62;3.80;;;;;;;18.47;100.00;100288.66;1672562;84;21098;-91
2021/05/29 01:01:11;;;;;;;19.32;4.15;;;;;;;18.46;100.00;100281.61;1672468;84;21212;-90
2021/05/29 01:03:37;;;;;;;10.75;4.87;;;;;;;18.65;100.00;100278.02;1670848;84;20947;-89
2021/05/29 01:06:05;;;;;;;11.40;4.00;;;;;;;18.70;100.00;100279.19;1668114;84;21101;-89
2021/05/29 01:08:31;;;;;;;10.40;4.20;;;;;;;18.72;100.00;100276.16;1668241;84;21043;-88
2021/05/29 01:10:58;;;;;;;11.15;4.65;;;;;;;18.73;100.00;100275.85;1668166;84;20970;-88
2021/05/29 01:13:28;;;;;;;11.35;4.12;;;;;;;18.72;100.00;100271.49;1668151;84;21106;-87
2021/05/29 01:15:55;;;;;;;9.00;4.50;;;;;;;18.78;100.00;100266.14;1672160;82;21070;-87
2021/05/29 01:18:19;;;;;;;16.00;4.55;;;;;;;18.72;100.00;100271.49;1668198;84;21653;-87
2021/05/29 01:20:47;;;;;;;11.83;4.10;;;;;;;18.64;100.00;100274.23;1667971;84;20960;-87
2021/05/29 01:23:14;;;;;;;12.23;4.62;;;;;;;18.63;100.00;100287.08;1672670;84;21063;-87
2021/05/29 01:25:47;;;;;;;10.20;4.90;;;;;;;18.33;100.00;100310.09;1668230;84;21127;-87
2021/05/29 01:28:27;;;;;;;12.63;5.28;;;;;;;18.39;100.00;100317.00;1666005;86;20998;-86
2021/05/29 01:31:02;;;;;;;12.73;5.08;;;;;;;18.27;100.00;100302.39;1668121;84;21053;-86
2021/05/29 01:33:34;;;;;;;11.80;5.58;;;;;;;18.28;100.00;100298.53;1668256;84;21569;-86
2021/05/29 01:36:05;;;;;;;10.10;4.97;;;;;;;18.27;100.00;100298.30;1668423;84;21101;-87
2021/05/29 01:38:32;;;;;;;14.03;4.58;;;;;;;18.19;100.00;100290.33;1591268;90;21276;-86
2021/05/29 01:41:09;;;;;;;13.22;4.62;;;;;;;18.19;100.00;100286.80;1591374;88;21067;-85
2021/05/29 01:43:38;;;;;;;10.48;4.30;;;;;;;18.18;100.00;100282.45;1513075;94;21167;-85
2021/05/29 01:46:05;;;;;;;9.38;4.10;;;;;;;18.16;100.00;100280.85;1459323;97;21672;-85
2021/05/29 01:48:38;;;;;;;13.95;4.47;;;;;;;18.16;100.00;100277.33;1441387;99;21679;-85
2021/05/29 01:51:03;;;;;;;10.50;4.55;;;;;;;18.13;100.00;100278.77;1452517;97;21123;-85
2021/05/29 01:53:29;;;;;;;9.80;4.85;;;;;;;18.16;100.00;100279.48;1452514;98;21632;-86
2021/05/29 01:55:55;;;;;;;13.83;4.72;;;;;;;18.20;100.00;100278.85;1452534;98;21075;-85
2021/05/29 01:58:21;;;;;;;7.83;4.25;;;;;;;18.19;100.00;100275.89;1425392;100;21145;-86
2021/05/29 02:00:47;;;;;;;17.07;4.80;;;;;;;18.16;100.00;100279.48;1425345;100;21037;-86
2021/05/29 02:03:13;;;;;;;9.85;4.70;;;;;;;18.14;100.00;100281.72;1425315;100;21159;-86
2021/05/29 02:05:39;;;;;;;10.43;4.15;;;;;;;18.12;100.00;100289.44;1425356;100;21055;-85
2021/05/29 02:08:09;;;;;;;13.00;4.20;;;;;;;18.14;100.00;100285.02;1425343;100;21116;-85
2021/05/29 02:10:37;;;;;;;9.58;4.62;;;;;;;18.13;100.00;100278.77;1425332;100;21133;-86
2021/05/29 02:13:08;;;;;;;14.00;4.95;;;;;;;18.21;100.00;100266.27;1425442;100;21701;-86
2021/05/29 02:15:38;;;;;;;10.68;3.98;;;;;;;18.31;100.00;100267.87;1404453;102;21492;-85
2021/05/29 02:18:08;;;;;;;9.10;4.50;;;;;;;18.34;100.00;100272.13;1429214;100;21637;-86
2021/05/29 02:20:53;;;;;;;15.35;4.70;;;;;;;18.38;100.00;100279.94;1429284;100;21173;-86
2021/05/29 02:23:25;;;;;;;8.88;4.00;;;;;;;18.39;100.00;100274.70;1429196;100;21663;-86
2021/05/29 02:25:54;;;;;;;9.13;3.87;;;;;;;18.40;100.00;100267.32;1429264;100;21108;-85
2021/05/29 02:28:20;;;;;;;8.60;3.72;;;;;;;18.47;100.00;100262.20;1429139;100;21961;-86
2021/05/29 02:30:48;;;;;;;10.20;4.15;;;;;;;18.54;100.00;100274.80;1429250;100;21152;-86
2021/05/29 02:33:15;;;;;;;15.63;4.10;;;;;;;18.61;100.00;100266.11;1429148;100;21157;-87
2021/05/29 02:35:41;;;;;;;13.80;4.10;;;;;;;18.63;100.00;100258.98;1427730;100;21196;-86
2021/05/29 02:38:08;;;;;;;10.10;3.95;;;;;;;18.68;100.00;100256.90;1427004;100;21210;-86
2021/05/29 02:40:34;;;;;;;5.85;3.80;;;;;;;18.75;100.00;100264.05;1437863;98;21128;-86
2021/05/29 02:43:00;;;;;;;9.23;4.12;;;;;;;18.77;100.00;100265.11;1482159;94;21125;-87
2021/05/29 02:45:27;;;;;;;9.40;3.92;;;;;;;18.89;100.00;100258.98;1516450;94;21178;-87
2021/05/29 02:47:54;;;;;;;9.70;4.33;;;;;;;18.93;100.00;100253.11;1550459;90;21109;-87
2021/05/29 02:50:21;;;;;;;9.58;4.00;;;;;;;18.96;100.00;100253.26;1589830;90;21620;-86
2021/05/29 02:52:47;;;;;;;10.65;3.77;;;;;;;19.01;100.00;100252.30;1590000;90;21323;-86
2021/05/29 02:55:21;;;;;;;18.50;4.92;;;;;;;18.96;100.00;100263.38;1605241;88;20932;-86
2021/05/29 02:57:42;;;;;;;12.53;4.53;;;;;;;18.95;100.00;100265.89;1642985;84;21064;-86
2021/05/29 03:00:11;;;;;;;11.55;4.22;;;;;;;19.01;100.00;100262.66;1639318;87;20936;-87
2021/05/29 03:02:37;;;;;;;13.88;3.87;;;;;;;19.04;100.00;100259.27;1639377;87;21055;-87
2021/05/29 03:05:06;;;;;;;9.25;4.00;;;;;;;19.05;100.00;100256.77;1629828;86;21776;-86
2021/05/29 03:07:32;;;;;;;8.73;4.17;;;;;;;19.15;100.00;100264.37;1625540;88;21104;-86
2021/05/29 03:09:58;;;;;;;8.80;3.90;;;;;;;19.23;100.00;100263.55;1603982;88;20985;-87
2021/05/29 03:12:25;;;;;;;14.05;4.15;;;;;;;19.21;100.00;100248.88;1642844;85;21137;-87
2021/05/29 03:14:51;;;;;;;7.90;4.05;;;;;;;19.04;100.00;100245.61;1657871;86;21017;-87
2021/05/29 03:17:18;;;;;;;10.78;4.50;;;;;;;19.19;100.00;100247.02;1657617;85;21147;-87
2021/05/29 03:19:44;;;;;;;12.90;4.15;;;;;;;19.31;100.00;100251.00;1625691;86;21628;-87
2021/05/29 03:22:10;;;;;;;10.45;4.15;;;;;;;19.49;100.00;100251.97;1663111;84;21042;-87
2021/05/29 03:24:35;;;;;;;10.60;4.10;;;;;;;19.65;100.00;100252.27;1658033;86;21575;-86
2021/05/29 03:27:02;;;;;;;8.70;3.58;;;;;;;19.74;100.00;100237.98;1657774;86;20983;-86
2021/05/29 03:29:28;;;;;;;11.10;3.80;;;;;;;19.89;100.00;100246.17;1657722;86;21965;-86
2021/05/29 03:31:53;;;;;;;9.33;3.77;;;;;;;19.95;100.00;100242.12;1663017;84;20919;-86
2021/05/29 03:34:19;;;;;;;10.10;4.87;;;;;;;19.93;100.00;100244.95;1657794;86;20956;-86
2021/05/29 03:36:45;;;;;;;11.45;5.03;;;;;;;19.77;100.00;100239.83;1663149;85;20974;-87
2021/05/29 03:39:11;;;;;;;9.63;4.40;;;;;;;19.92;100.00;100235.94;1657816;86;21646;-86
2021/05/29 03:41:37;;;;;;;13.15;4.00;;;;;;;20.02;100.00;100236.69;1657850;86;21065;-86
2021/05/29 03:44:03;;;;;;;9.13;3.98;;;;;;;20.09;100.00;100241.05;1662975;85;20991;-86
2021/05/29 03:46:30;;;;;;;13.32;4.25;;;;;;;20.19;100.00;100233.83;1657647;86;21780;-86
2021/05/29 03:48:56;;;;;;;11.57;4.55;;;;;;;20.36;100.00;100228.23;1657754;86;21024;-86
2021/05/29 03:51:22;;;;;;;9.95;3.67;;;;;;;20.47;100.00;100227.26;1663242;85;20896;-86
2021/05/29 03:53:48;;;;;;;12.78;4.00;;;;;;;21.21;100.00;100239.84;1657772;85;21060;-86
2021/05/29 03:56:14;;;;;;;10.63;4.50;;;;;;;22.17;100.00;100247.05;1657993;85;20909;-86
2021/05/29 03:58:40;;;;;;;11.18;4.15;;;;;;;23.61;100.00;100248.98;1657795;86;21690;-87
2021/05/29 04:01:06;;;;;;;8.00;3.95;;;;;;;24.96;100.00;100238.51;1657679;86;21457;-87
2021/05/29 04:03:31;;;;;;;10.80;3.58;;;;;;;26.12;100.00;100238.62;1657919;85;20933;-86
2021/05/29 04:05:57;;;;;;;8.75;3.52;;;;;;;27.04;100.00;100240.92;1650740;84;21130;-87
2021/05/29 04:08:23;;;;;;;8.88;3.60;;;;;;;27.59;81.00;100247.36;1620387;88;20879;-87
2021/05/29 04:10:49;;;;;;;11.20;3.80;;;;;;;27.88;90.09;100248.95;1604286;87;21079;-87
2021/05/29 04:13:16;;;;;;;8.75;4.37;;;;;;;28.41;88.51;100240.16;1604407;88;21005;-86
2021/05/29 04:15:42;;;;;;;9.55;4.03;;;;;;;28.38;75.19;100240.11;1650091;86;21184;-87
2021/05/29 04:18:08;;;;;;;8.20;3.75;;;;;;;28.30;62.19;100240.69;1620450;88;21205;-87
2021/05/29 04:20:34;;;;;;;8.45;4.10;;;;;;;28.44;65.09;100232.47;1589071;89;21083;-87
2021/05/29 04:23:00;;;;;;;7.95;3.62;;;;;;;28.16;61.06;100233.69;1650090;87;20958;-87
2021/05/29 04:25:30;;;;;;;12.90;4.40;;;;;;;28.37;67.08;100240.71;1616994;88;21081;-88
2021/05/29 04:27:57;;;;;;;10.93;4.00;;;;;;;28.01;62.48;100244.70;1604335;89;21604;-86
2021/05/29 04:30:27;;;;;;;13.98;4.65;;;;;;;27.03;64.15;100243.47;1650003;86;21758;-87
2021/05/29 04:32:53;;;;;;;11.22;4.05;;;;;;;26.73;70.22;100245.13;1620326;88;21012;-87
2021/05/29 04:35:21;;;;;;;11.93;4.28;;;;;;;26.66;76.64;100244.27;1604310;89;21656;-87
2021/05/29 04:37:48;;;;;;;16.25;4.28;;;;;;;26.14;73.96;100246.75;1650153;87;21080;-87
2021/05/29 04:40:16;;;;;;;12.35;4.55;;;;;;;26.04;80.12;100243.27;1600161;88;21068;-88
2021/05/29 04:42:42;;;;;;;13.03;4.67;;;;;;;25.94;83.22;100244.72;1609191;86;21504;-87
2021/05/29 04:45:11;;;;;;;13.60;5.05;;;;;;;25.53;82.22;100247.23;1650124;87;21044;-87
2021/05/29 04:47:38;;;;;;;12.40;5.45;;;;;;;24.77;91.01;100253.13;1620330;88;21080;-87
2021/05/29 04:50:08;;;;;;;18.23;5.80;;;;;;;23.83;93.81;100260.55;1604190;89;21075;-86
2021/05/29 04:52:34;;;;;;;15.90;5.75;;;;;;;24.26;95.73;100253.44;1650205;86;21072;-87
2021/05/29 04:55:00;;;;;;;17.73;5.72;;;;;;;24.57;92.70;100264.73;1620126;88;21129;-87
2021/05/29 04:57:26;;;;;;;11.73;5.05;;;;;;;24.79;94.97;100256.30;1604296;89;21075;-87
2021/05/29 04:59:52;;;;;;;15.20;5.42;;;;;;;24.67;92.57;100248.40;1650118;86;20970;-87
2021/05/29 05:02:18;;;;;;;12.20;4.85;;;;;;;25.04;93.92;100250.69;1629584;87;20890;-87
2021/05/29 05:04:44;;;;;;;15.55;4.15;;;;;;;25.64;83.40;100244.61;1627816;84;20939;-87
2021/05/29 05:07:09;;;;;;;10.93;3.92;;;;;;;26.03;76.07;100251.33;1636574;87;21182;-89
2021/05/29 05:09:35;;;;;;;7.92;3.83;;;;;;;26.57;77.18;100247.34;1645926;87;20992;-88
2021/05/29 05:12:01;;;;;;;5.55;3.60;;;;;;;26.54;73.92;100246.70;1636565;87;21009;-88
2021/05/29 05:14:27;;;;;;;11.10;3.87;;;;;;;26.23;73.86;100250.62;1646283;87;21151;-87
2021/05/29 05:16:53;;;;;;;12.43;3.98;;;;;;;25.60;76.40;100241.02;1636530;87;21762;-88
2021/05/29 05:19:20;;;;;;;7.60;4.03;;;;;;;25.59;77.98;100241.60;1646313;87;20991;-87
2021/05/29 05:21:46;;;;;;;8.73;4.28;;;;;;;25.62;80.05;100241.45;1636507;87;21128;-87
2021/05/29 05:24:12;;;;;;;11.60;3.52;;;;;;;25.59;81.29;100244.95;1646270;86;20972;-86
2021/05/29 05:26:38;;;;;;;13.90;4.42;;;;;;;24.90;82.14;100249.03;1636770;87;20973;-86
2021/05/29 05:29:04;;;;;;;13.28;4.35;;;;;;;25.33;85.61;100252.60;1646372;86;21067;-87
2021/05/29 05:31:35;;;;;;;11.15;3.40;;;;;;;25.70;85.11;100248.65;1636611;87;21160;-86
2021/05/29 05:34:08;;;;;;;9.40;3.08;;;;;;;25.84;84.27;100255.02;1646189;86;21519;-86
2021/05/29 05:36:30;;;;;;;11.25;3.40;;;;;;;25.93;80.17;100246.46;1636632;87;21108;-87
2021/05/29 05:38:55;;;;;;;12.30;3.65;;;;;;;25.89;84.54;100247.00;1646180;85;20945;-87
2021/05/29 05:41:21;;;;;;;6.25;2.95;;;;;;;25.96;80.49;100252.62;1636692;87;21024;-88
2021/05/29 05:43:49;;;;;;;7.92;2.80;;;;;;;25.92;78.87;100251.19;1646160;85;21843;-86
2021/05/29 05:46:16;;;;;;;11.18;2.98;;;;;;;25.90;72.56;100251.34;1636656;87;20997;-85
2021/05/29 05:48:42;;;;;;;6.75;2.90;;;;;;;26.23;75.96;100254.17;1646177;86;21057;-87
2021/05/29 05:51:08;;;;;;;5.58;2.60;;;;;;;26.92;68.26;100253.05;1636604;87;21076;-86
2021/05/29 05:53:35;;;;;;;7.75;3.20;;;;;;;27.08;60.71;100249.45;1646298;87;21630;-86
2021/05/29 05:56:05;;;;;;;7.35;2.80;;;;;;;28.50;60.60;100244.77;1636690;87;21046;-86
2021/05/29 05:58:34;;;;;;;5.53;3.08;;;;;;;29.20;51.60;100233.43;1646085;87;21024;-86
2021/05/29 17:00:44;;;;;;;17.95;8.55;;;;;;;18.60;100.00;100250.30;1692979;83;21160;-89
2021/05/29 17:03:09;;;;;;;22.15;9.50;;;;;;;18.43;100.00;100263.95;1698261;82;21584;-89
2021/05/29 17:05:35;;;;;;;15.10;7.47;;;;;;;18.64;100.00;100273.66;1686975;83;20943;-89
2021/05/29 17:08:01;;;;;;;15.80;5.70;;;;;;;18.35;100.00;100284.67;1686065;82;21034;-86
2021/05/29 17:10:27;;;;;;;13.83;5.70;;;;;;;18.29;100.00;100285.12;1694220;82;20904;-86
2021/05/29 17:12:53;;;;;;;10.85;5.17;;;;;;;17.74;100.00;100272.79;1679671;83;21166;-87
2021/05/29 17:15:19;;;;;;;10.35;4.72;;;;;;;17.32;100.00;100273.63;1679279;83;20947;-88
2021/05/29 17:17:45;;;;;;;11.55;4.92;;;;;;;17.27;100.00;100262.89;1696289;82;20939;-87
2021/05/29 17:20:14;;;;;;;9.93;4.62;;;;;;;17.34;100.00;100259.72;1678265;85;20891;-87
2021/05/29 17:22:41;;;;;;;10.75;4.85;;;;;;;17.16;100.00;100260.19;1678072;84;21526;-87
2021/05/29 20:55:58;;;;;;;41.70;19.25;;;;;;;15.76;100.00;100138.63;1812982;77;21879;-89
2021/05/29 20:58:24;;;;;;;36.42;18.70;;;;;;;15.98;100.00;100141.16;1786512;80;20974;-89
2021/05/29 21:00:53;;;;;;;34.35;16.40;;;;;;;16.27;100.00;100141.55;1756763;80;21895;-90
2021/05/29 21:03:21;;;;;;;37.98;16.02;;;;;;;16.66;100.00;100141.39;1787551;80;21041;-90
2021/05/29 21:05:49;;;;;;;32.83;15.83;;;;;;;16.93;100.00;100138.27;1787501;80;21185;-90
2021/05/29 21:08:15;;;;;;;30.23;15.65;;;;;;;17.10;100.00;100132.11;1787630;80;21127;-89
2021/05/29 21:10:41;;;;;;;36.10;15.83;;;;;;;17.33;100.00;100131.47;1787676;80;21485;-89
2021/05/29 21:13:07;;;;;;;32.15;15.18;;;;;;;17.68;100.00;100125.53;1756872;80;21076;-89
2021/05/29 21:15:36;;;;;;;29.20;14.70;;;;;;;17.68;100.00;100125.53;1787453;80;21019;-90
2021/05/29 21:23:12;;;;;;;28.57;15.40;;;;;;;18.07;100.00;100120.51;1787117;80;21065;-88
2021/05/29 21:25:38;;;;;;;33.05;15.85;;;;;;;18.30;100.00;100103.97;1787565;80;21117;-88
2021/05/29 21:28:05;;;;;;;38.88;17.40;;;;;;;18.53;100.00;100120.91;1787422;80;21628;-88
2021/05/29 21:30:31;;;;;;;36.28;15.98;;;;;;;18.53;100.00;100120.91;1787570;80;21133;-88
2021/05/29 21:32:57;;;;;;;34.63;17.00;;;;;;;18.73;100.00;100118.88;1787465;80;21569;-87
2021/05/29 21:35:24;;;;;;;31.17;17.00;;;;;;;18.63;100.00;100119.22;1787711;80;20906;-87
2021/05/29 21:41:30;;;;;;;35.65;17.85;;;;;;;18.57;100.00;100117.79;1787394;80;21073;-88
2021/05/29 21:44:01;;;;;;;37.85;18.37;;;;;;;18.58;100.00;100117.45;1787874;80;20910;-89
2021/05/29 21:51:56;;;;;;;34.70;19.15;;;;;;;18.91;100.00;100103.23;1788098;79;21124;-89
2021/05/29 21:54:24;;;;;;;40.45;19.10;;;;;;;18.92;100.00;100100.76;1810638;79;21050;-89
2021/05/29 21:56:51;;;;;;;39.63;20.15;;;;;;;18.93;100.00;100102.92;1799952;79;21010;-89
2021/05/29 21:59:20;;;;;;;36.15;18.30;;;;;;;18.98;100.00;100108.20;1800132;79;21070;-89
2021/05/29 22:01:46;;;;;;;37.83;19.32;;;;;;;18.96;100.00;100102.27;1800028;79;21050;-89
2021/05/29 22:04:17;;;;;;;41.75;18.67;;;;;;;19.00;100.00;100103.20;1799952;79;21046;-89
2021/05/29 22:06:40;;;;;;;38.65;19.70;;;;;;;19.08;100.00;100099.62;1795469;79;21078;-90
2021/05/29 22:09:08;;;;;;;43.08;20.05;;;;;;;19.21;100.00;100104.08;1799422;79;21656;-90
2021/05/29 22:19:40;;;;;;;48.00;21.75;;;;;;;19.37;100.00;100111.70;1687666;84;21099;-89
2021/05/29 22:30:18;;;;;;;43.92;20.23;;;;;;;19.33;100.00;100123.06;1687892;84;21181;-90
2021/05/29 22:32:46;;;;;;;37.25;18.62;;;;;;;19.36;100.00;100125.13;1688104;85;21042;-90
2021/05/29 22:35:13;;;;;;;41.65;17.90;;;;;;;19.32;100.00;100126.91;1687921;85;21130;-90
2021/05/29 22:37:40;;;;;;;46.98;19.05;;;;;;;19.27;100.00;100125.98;1687779;85;21629;-90
2021/05/29 22:40:07;;;;;;;37.42;17.95;;;;;;;19.24;100.00;100117.08;1688164;85;21027;-89
2021/05/29 22:42:33;;;;;;;32.85;16.97;;;;;;;19.27;100.00;100116.98;1687940;85;21193;-92
2021/05/29 22:45:00;;;;;;;36.80;19.35;;;;;;;19.23;100.00;100111.92;1687885;85;21058;-90
2021/05/29 22:47:26;;;;;;;29.35;16.30;;;;;;;19.35;100.00;100117.48;1687902;85;21609;-90
2021/05/29 22:49:53;;;;;;;38.73;17.07;;;;;;;19.45;100.00;100121.78;1687895;85;20927;-90
2021/05/29 22:52:19;;;;;;;30.92;16.05;;;;;;;19.50;100.00;100129.23;1687561;85;21078;-90
2021/05/29 22:54:45;;;;;;;29.85;16.05;;;;;;;19.47;100.00;100129.89;1688550;84;21121;-89
2021/05/29 22:57:11;;;;;;;27.00;15.85;;;;;;;19.41;100.00;100127.11;1692989;84;20915;-90
2021/05/29 22:59:37;;;;;;;30.97;16.27;;;;;;;19.20;100.00;100128.41;1651651;86;21010;-91
2021/05/29 23:02:04;;;;;;;26.75;15.00;;;;;;;19.28;100.00;100133.03;1666110;85;21170;-90
2021/05/29 23:04:31;;;;;;;28.35;15.50;;;;;;;19.30;100.00;100145.02;1677092;85;21073;-90
2021/05/29 23:06:57;;;;;;;31.20;15.08;;;;;;;19.19;100.00;100139.11;1652950;85;21098;-91
2021/05/29 23:09:23;;;;;;;29.42;15.68;;;;;;;19.20;100.00;100137.97;1677444;85;21163;-91
2021/05/29 23:11:49;;;;;;;29.27;15.03;;;;;;;19.16;100.00;100139.77;1666823;85;21006;-90
2021/05/29 23:14:15;;;;;;;30.97;15.08;;;;;;;19.09;100.00;100137.30;1665074;86;21549;-91
2021/05/29 23:16:41;;;;;;;27.73;14.75;;;;;;;19.09;100.00;100140.03;1703570;83;20963;-91
2021/05/29 23:19:07;;;;;;;28.45;14.50;;;;;;;19.03;100.00;100143.51;1720287;83;21573;-91
2021/05/29 23:21:33;;;;;;;38.23;14.55;;;;;;;18.92;100.00;100149.91;1720373;83;21543;-91
2021/05/29 23:23:59;;;;;;;30.40;14.03;;;;;;;18.99;100.00;100152.92;1728404;82;21025;-90
2021/05/29 23:26:25;;;;;;;28.80;14.53;;;;;;;19.02;100.00;100148.74;1740919;82;21101;-91
2021/05/29 23:28:51;;;;;;;23.20;13.15;;;;;;;18.80;100.00;100156.05;1741028;82;20902;-90
2021/05/29 23:31:17;;;;;;;25.32;12.90;;;;;;;19.03;100.00;100154.44;1740755;82;21153;-91
2021/05/29 23:33:43;;;;;;;27.25;12.28;;;;;;;18.74;100.00;100165.55;1740752;81;21551;-91
2021/05/29 23:36:09;;;;;;;25.15;12.05;;;;;;;18.70;100.00;100156.92;1740821;82;20898;-90
2021/05/29 23:38:35;;;;;;;20.70;12.05;;;;;;;18.75;100.00;100164.98;1740926;82;21621;-90
2021/05/29 23:41:01;;;;;;;20.62;11.50;;;;;;;18.76;100.00;100167.36;1740863;82;21046;-90
2021/05/29 23:43:27;;;;;;;23.45;10.95;;;;;;;18.78;100.00;100169.78;1740985;82;21159;-91
2021/05/29 23:45:54;;;;;;;18.90;10.70;;;;;;;18.67;100.00;100172.02;1740831;82;20957;-91
2021/05/29 23:48:20;;;;;;;20.08;10.85;;;;;;;18.61;100.00;100167.29;1740843;82;21065;-90
2021/05/29 23:50:51;;;;;;;22.45;10.78;;;;;;;18.52;100.00;100168.44;1740935;82;21057;-92
2021/05/29 23:56:55;;;;;;;23.77;10.38;;;;;;;18.35;100.00;100178.27;1741461;81;21109;-90
2021/05/29 23:59:24;;;;;;;17.75;10.03;;;;;;;18.14;100.00;100175.92;1751012;81;21588;-91
